sensor_id;sensor_type;location;lat;lon;timestamp;pressure;altitude;pressure_sealevel;temperature;humidity
61870;BME280;47810;42.264;23.826;2024-01-25T00:02:26;94079.81;;;3.28;68.85
61870;BME280;47810;42.264;23.826;2024-01-25T00:08:00;94104.38;;;3.21;70.16
61870;BME280;47810;42.264;23.826;2024-01-25T00:10:47;94106.66;;;3.32;69.47
61870;BME280;47810;42.264;23.826;2024-01-25T00:13:30;94108.56;;;3.26;67.24
61870;BME280;47810;42.264;23.826;2024-01-25T00:16:00;94113.53;;;3.08;68.85
61870;BME280;47810;42.264;23.826;2024-01-25T00:18:28;94119.25;;;2.92;69.96
61870;BME280;47810;42.264;23.826;2024-01-25T00:20:58;94115.34;;;3.06;69.08
61870;BME280;47810;42.264;23.826;2024-01-25T00:26:55;94136.22;;;3.06;70.34
61870;BME280;47810;42.264;23.826;2024-01-25T00:29:54;94147.31;;;2.84;72.26
61870;BME280;47810;42.264;23.826;2024-01-25T00:38:35;94143.94;;;3.09;72.20
61870;BME280;47810;42.264;23.826;2024-01-25T00:41:02;94146.75;;;3.02;73.18
61870;BME280;47810;42.264;23.826;2024-01-25T00:47:23;94129.16;;;3.08;74.11
61870;BME280;47810;42.264;23.826;2024-01-25T00:57:08;94065.97;;;4.00;77.35
61870;BME280;47810;42.264;23.826;2024-01-25T00:59:35;94060.28;;;4.35;78.46
61870;BME280;47810;42.264;23.826;2024-01-25T01:02:09;94051.06;;;5.55;77.21
61870;BME280;47810;42.264;23.826;2024-01-25T01:08:07;94074.13;;;5.25;74.05
61870;BME280;47810;42.264;23.826;2024-01-25T01:11:00;94070.06;;;4.98;74.12
61870;BME280;47810;42.264;23.826;2024-01-25T01:17:09;94053.44;;;4.77;74.68
61870;BME280;47810;42.264;23.826;2024-01-25T01:19:39;94047.84;;;4.64;76.08
61870;BME280;47810;42.264;23.826;2024-01-25T01:22:13;94034.75;;;4.64;76.27
61870;BME280;47810;42.264;23.826;2024-01-25T01:24:41;94042.84;;;5.02;79.09
61870;BME280;47810;42.264;23.826;2024-01-25T01:27:08;94036.25;;;5.54;78.10
61870;BME280;47810;42.264;23.826;2024-01-25T01:33:28;94033.56;;;5.15;74.59
61870;BME280;47810;42.264;23.826;2024-01-25T01:42:50;94029.81;;;6.59;73.79
61870;BME280;47810;42.264;23.826;2024-01-25T01:45:22;94003.03;;;7.06;71.19
61870;BME280;47810;42.264;23.826;2024-01-25T01:47:59;94008.31;;;7.41;69.22
61870;BME280;47810;42.264;23.826;2024-01-25T01:50:34;94008.16;;;7.61;68.72
61870;BME280;47810;42.264;23.826;2024-01-25T01:53:12;93995.22;;;7.74;68.00
61870;BME280;47810;42.264;23.826;2024-01-25T01:55:39;94003.09;;;7.74;68.00
61870;BME280;47810;42.264;23.826;2024-01-25T01:58:42;93998.66;;;7.92;67.87
61870;BME280;47810;42.264;23.826;2024-01-25T02:01:10;93978.72;;;7.88;67.57
61870;BME280;47810;42.264;23.826;2024-01-25T02:07:33;93981.22;;;8.07;66.84
61870;BME280;47810;42.264;23.826;2024-01-25T02:10:04;93961.84;;;7.92;66.63
61870;BME280;47810;42.264;23.826;2024-01-25T02:12:40;93970.84;;;7.88;65.98
61870;BME280;47810;42.264;23.826;2024-01-25T02:15:12;93979.19;;;7.96;65.58
61870;BME280;47810;42.264;23.826;2024-01-25T02:18:00;93968.47;;;7.99;65.37
61870;BME280;47810;42.264;23.826;2024-01-25T02:20:32;93969.00;;;8.22;64.26
61870;BME280;47810;42.264;23.826;2024-01-25T02:23:02;93934.56;;;8.10;65.00
61870;BME280;47810;42.264;23.826;2024-01-25T02:25:39;93938.47;;;8.03;65.92
61870;BME280;47810;42.264;23.826;2024-01-25T02:28:12;93912.00;;;8.06;66.61
61870;BME280;47810;42.264;23.826;2024-01-25T02:30:42;93917.44;;;8.35;65.12
61870;BME280;47810;42.264;23.826;2024-01-25T02:33:16;93915.06;;;8.30;65.29
61870;BME280;47810;42.264;23.826;2024-01-25T02:35:43;93910.47;;;8.34;64.72
61870;BME280;47810;42.264;23.826;2024-01-25T02:38:09;93908.59;;;8.36;64.80
61870;BME280;47810;42.264;23.826;2024-01-25T02:40:39;93894.31;;;8.42;64.37
61870;BME280;47810;42.264;23.826;2024-01-25T02:43:14;93908.09;;;8.13;64.90
61870;BME280;47810;42.264;23.826;2024-01-25T02:45:41;93939.84;;;8.26;65.60
61870;BME280;47810;42.264;23.826;2024-01-25T02:48:32;93929.81;;;8.01;65.63
61870;BME280;47810;42.264;23.826;2024-01-25T02:51:00;93908.69;;;7.87;66.03
61870;BME280;47810;42.264;23.826;2024-01-25T02:53:37;93920.97;;;8.02;64.49
61870;BME280;47810;42.264;23.826;2024-01-25T02:56:26;93932.19;;;8.22;63.61
61870;BME280;47810;42.264;23.826;2024-01-25T02:59:10;93929.16;;;8.29;63.68
61870;BME280;47810;42.264;23.826;2024-01-25T03:01:43;93928.13;;;8.16;63.24
61870;BME280;47810;42.264;23.826;2024-01-25T03:04:11;93917.75;;;7.97;64.63
61870;BME280;47810;42.264;23.826;2024-01-25T03:06:53;93912.41;;;8.14;63.48
61870;BME280;47810;42.264;23.826;2024-01-25T03:09:20;93910.28;;;8.05;63.02
61870;BME280;47810;42.264;23.826;2024-01-25T03:11:57;93934.75;;;8.23;62.62
61870;BME280;47810;42.264;23.826;2024-01-25T03:14:26;93925.91;;;8.08;63.75
61870;BME280;47810;42.264;23.826;2024-01-25T03:16:59;93939.00;;;8.26;63.03
61870;BME280;47810;42.264;23.826;2024-01-25T03:19:27;93925.25;;;8.21;63.37
61870;BME280;47810;42.264;23.826;2024-01-25T03:22:04;93912.19;;;8.03;64.42
61870;BME280;47810;42.264;23.826;2024-01-25T03:24:37;93887.22;;;7.94;65.12
61870;BME280;47810;42.264;23.826;2024-01-25T03:30:08;93882.31;;;8.36;64.16
61870;BME280;47810;42.264;23.826;2024-01-25T03:32:45;93865.19;;;8.29;64.34
61870;BME280;47810;42.264;23.826;2024-01-25T03:35:13;93849.91;;;8.35;63.77
61870;BME280;47810;42.264;23.826;2024-01-25T03:37:40;93861.13;;;8.39;62.46
61870;BME280;47810;42.264;23.826;2024-01-25T03:40:06;93878.59;;;8.40;62.26
61870;BME280;47810;42.264;23.826;2024-01-25T03:42:39;93870.59;;;8.57;60.82
61870;BME280;47810;42.264;23.826;2024-01-25T03:45:38;93897.56;;;8.77;59.89
61870;BME280;47810;42.264;23.826;2024-01-25T03:48:17;93896.88;;;8.73;60.24
61870;BME280;47810;42.264;23.826;2024-01-25T03:50:48;93889.03;;;8.57;60.77
61870;BME280;47810;42.264;23.826;2024-01-25T03:53:44;93905.19;;;8.66;60.43
61870;BME280;47810;42.264;23.826;2024-01-25T03:56:12;93922.53;;;8.54;61.22
61870;BME280;47810;42.264;23.826;2024-01-25T04:02:34;93958.63;;;8.52;61.76
61870;BME280;47810;42.264;23.826;2024-01-25T04:11:26;93947.13;;;8.21;62.34
61870;BME280;47810;42.264;23.826;2024-01-25T04:24:22;93936.59;;;8.05;63.68
61870;BME280;47810;42.264;23.826;2024-01-25T04:36:17;93897.56;;;7.82;65.89
61870;BME280;47810;42.264;23.826;2024-01-25T04:38:43;93870.94;;;7.88;65.74
61870;BME280;47810;42.264;23.826;2024-01-25T04:41:26;93882.41;;;7.87;66.48
61870;BME280;47810;42.264;23.826;2024-01-25T04:44:29;93892.81;;;7.88;65.42
61870;BME280;47810;42.264;23.826;2024-01-25T04:47:00;93910.13;;;8.08;63.02
61870;BME280;47810;42.264;23.826;2024-01-25T04:49:27;93911.69;;;8.12;62.66
61870;BME280;47810;42.264;23.826;2024-01-25T04:52:18;93918.28;;;8.20;62.37
61870;BME280;47810;42.264;23.826;2024-01-25T04:58:22;93894.44;;;8.07;61.70
61870;BME280;47810;42.264;23.826;2024-01-25T05:00:56;93885.22;;;8.15;61.31
61870;BME280;47810;42.264;23.826;2024-01-25T05:13:40;93941.69;;;8.24;55.82
61870;BME280;47810;42.264;23.826;2024-01-25T05:16:26;93943.06;;;8.15;55.91
61870;BME280;47810;42.264;23.826;2024-01-25T05:28:54;93938.34;;;8.38;53.38
61870;BME280;47810;42.264;23.826;2024-01-25T05:31:31;93967.66;;;8.14;54.94
61870;BME280;47810;42.264;23.826;2024-01-25T05:34:15;93960.69;;;8.13;56.53
61870;BME280;47810;42.264;23.826;2024-01-25T05:36:46;93981.06;;;8.10;56.89
61870;BME280;47810;42.264;23.826;2024-01-25T05:39:13;93977.28;;;7.98;56.80
61870;BME280;47810;42.264;23.826;2024-01-25T05:41:58;93980.41;;;7.89;57.65
61870;BME280;47810;42.264;23.826;2024-01-25T05:44:26;93978.53;;;7.75;58.16
61870;BME280;47810;42.264;23.826;2024-01-25T05:53:19;93967.91;;;7.61;58.10
61870;BME280;47810;42.264;23.826;2024-01-25T05:55:50;93979.88;;;7.49;58.99
61870;BME280;47810;42.264;23.826;2024-01-25T05:58:25;93975.56;;;7.48;56.92
61870;BME280;47810;42.264;23.826;2024-01-25T06:01:07;93984.50;;;7.61;55.53
61870;BME280;47810;42.264;23.826;2024-01-25T06:06:30;94001.19;;;7.60;55.30
61870;BME280;47810;42.264;23.826;2024-01-25T06:09:07;94009.22;;;7.57;55.26
61870;BME280;47810;42.264;23.826;2024-01-25T06:12:00;94019.19;;;7.51;55.21
61870;BME280;47810;42.264;23.826;2024-01-25T06:17:50;94029.91;;;7.11;59.93
61870;BME280;47810;42.264;23.826;2024-01-25T06:20:21;94030.50;;;6.82;62.28
61870;BME280;47810;42.264;23.826;2024-01-25T06:23:07;94058.56;;;6.80;63.26
61870;BME280;47810;42.264;23.826;2024-01-25T06:25:56;94049.25;;;6.55;65.14
61870;BME280;47810;42.264;23.826;2024-01-25T06:32:12;94068.03;;;6.06;68.22
61870;BME280;47810;42.264;23.826;2024-01-25T06:34:39;94064.22;;;5.95;69.00
61870;BME280;47810;42.264;23.826;2024-01-25T06:41:33;94061.38;;;5.79;69.51
61870;BME280;47810;42.264;23.826;2024-01-25T06:44:31;94062.91;;;5.84;68.42
61870;BME280;47810;42.264;23.826;2024-01-25T06:47:26;94060.66;;;5.96;64.72
61870;BME280;47810;42.264;23.826;2024-01-25T06:49:54;94054.63;;;6.14;63.39
61870;BME280;47810;42.264;23.826;2024-01-25T06:52:26;94056.16;;;6.18;62.25
61870;BME280;47810;42.264;23.826;2024-01-25T06:55:06;94062.69;;;6.28;61.42
61870;BME280;47810;42.264;23.826;2024-01-25T07:04:20;94072.63;;;6.79;57.09
61870;BME280;47810;42.264;23.826;2024-01-25T07:10:40;94066.38;;;7.00;55.18
61870;BME280;47810;42.264;23.826;2024-01-25T07:13:30;94075.00;;;6.83;56.95
61870;BME280;47810;42.264;23.826;2024-01-25T07:16:16;94079.28;;;6.86;56.69
61870;BME280;47810;42.264;23.826;2024-01-25T07:18:58;94081.13;;;6.84;56.27
61870;BME280;47810;42.264;23.826;2024-01-25T07:21:46;94085.09;;;6.73;57.00
61870;BME280;47810;42.264;23.826;2024-01-25T07:24:12;94079.72;;;6.76;55.70
61870;BME280;47810;42.264;23.826;2024-01-25T07:26:49;94058.00;;;6.92;54.85
61870;BME280;47810;42.264;23.826;2024-01-25T07:29:15;94064.22;;;6.89;54.26
61870;BME280;47810;42.264;23.826;2024-01-25T07:32:01;94065.47;;;6.99;54.43
61870;BME280;47810;42.264;23.826;2024-01-25T07:34:41;94059.38;;;6.99;54.65
61870;BME280;47810;42.264;23.826;2024-01-25T07:37:08;94076.53;;;7.06;53.17
61870;BME280;47810;42.264;23.826;2024-01-25T07:39:37;94071.13;;;7.09;53.17
61870;BME280;47810;42.264;23.826;2024-01-25T07:46:10;94055.25;;;7.12;52.72
61870;BME280;47810;42.264;23.826;2024-01-25T07:48:45;94072.16;;;7.07;51.05
61870;BME280;47810;42.264;23.826;2024-01-25T07:51:27;94063.91;;;7.14;52.13
61870;BME280;47810;42.264;23.826;2024-01-25T07:57:48;94053.88;;;7.22;48.88
61870;BME280;47810;42.264;23.826;2024-01-25T08:07:08;94046.47;;;7.13;48.55
61870;BME280;47810;42.264;23.826;2024-01-25T08:16:53;94046.47;;;7.13;48.62
61870;BME280;47810;42.264;23.826;2024-01-25T08:19:50;94064.16;;;7.27;49.09
61870;BME280;47810;42.264;23.826;2024-01-25T08:26:09;94050.94;;;7.29;47.68
61870;BME280;47810;42.264;23.826;2024-01-25T08:28:49;94029.91;;;7.29;49.13
61870;BME280;47810;42.264;23.826;2024-01-25T08:31:17;94052.25;;;7.20;49.06
61870;BME280;47810;42.264;23.826;2024-01-25T08:33:58;94047.22;;;7.15;48.32
61870;BME280;47810;42.264;23.826;2024-01-25T08:36:25;94044.75;;;7.12;49.57
61870;BME280;47810;42.264;23.826;2024-01-25T08:39:02;94035.25;;;7.10;49.33
61870;BME280;47810;42.264;23.826;2024-01-25T08:42:02;94027.16;;;7.14;50.50
61870;BME280;47810;42.264;23.826;2024-01-25T08:48:25;94048.88;;;6.99;53.12
61870;BME280;47810;42.264;23.826;2024-01-25T08:57:49;94040.59;;;7.26;49.77
61870;BME280;47810;42.264;23.826;2024-01-25T09:04:48;94034.56;;;7.23;48.37
61870;BME280;47810;42.264;23.826;2024-01-25T09:14:42;94019.91;;;7.19;47.84
61870;BME280;47810;42.264;23.826;2024-01-25T09:17:12;94041.44;;;7.26;46.90
61870;BME280;47810;42.264;23.826;2024-01-25T09:23:21;94046.00;;;7.75;46.97
61870;BME280;47810;42.264;23.826;2024-01-25T09:32:28;94061.31;;;7.84;48.11
61870;BME280;47810;42.264;23.826;2024-01-25T09:34:59;94060.53;;;7.82;46.63
61870;BME280;47810;42.264;23.826;2024-01-25T09:37:45;94048.44;;;8.12;46.95
61870;BME280;47810;42.264;23.826;2024-01-25T09:40:12;94070.50;;;8.26;47.94
61870;BME280;47810;42.264;23.826;2024-01-25T09:46:56;94031.13;;;8.57;46.11
61870;BME280;47810;42.264;23.826;2024-01-25T09:53:05;94042.56;;;8.72;47.38
61870;BME280;47810;42.264;23.826;2024-01-25T09:56:09;94032.53;;;8.47;46.19
61870;BME280;47810;42.264;23.826;2024-01-25T09:58:50;94030.97;;;8.60;45.56
61870;BME280;47810;42.264;23.826;2024-01-25T10:01:27;94025.16;;;8.70;45.07
61870;BME280;47810;42.264;23.826;2024-01-25T10:07:47;94014.88;;;9.13;44.46
61870;BME280;47810;42.264;23.826;2024-01-25T10:10:33;94000.50;;;9.63;44.84
61870;BME280;47810;42.264;23.826;2024-01-25T10:13:12;94006.69;;;10.06;44.83
61870;BME280;47810;42.264;23.826;2024-01-25T10:18:46;94008.50;;;9.01;44.72
61870;BME280;47810;42.264;23.826;2024-01-25T10:21:19;94014.63;;;9.01;45.74
61870;BME280;47810;42.264;23.826;2024-01-25T10:24:02;93995.19;;;8.88;46.76
61870;BME280;47810;42.264;23.826;2024-01-25T10:36:01;93995.69;;;8.79;46.57
61870;BME280;47810;42.264;23.826;2024-01-25T10:38:31;93984.16;;;8.66;46.81
61870;BME280;47810;42.264;23.826;2024-01-25T10:56:28;93950.25;;;8.91;47.07
61870;BME280;47810;42.264;23.826;2024-01-25T10:59:04;93952.38;;;8.84;47.05
61870;BME280;47810;42.264;23.826;2024-01-25T11:07:50;93942.91;;;8.66;47.89
61870;BME280;47810;42.264;23.826;2024-01-25T11:14:13;93939.31;;;8.83;48.43
61870;BME280;47810;42.264;23.826;2024-01-25T11:16:48;93964.28;;;8.44;48.32
61870;BME280;47810;42.264;23.826;2024-01-25T11:19:49;93955.97;;;8.36;48.96
61870;BME280;47810;42.264;23.826;2024-01-25T11:22:37;93968.88;;;8.56;49.67
61870;BME280;47810;42.264;23.826;2024-01-25T11:25:20;93962.41;;;8.78;48.87
61870;BME280;47810;42.264;23.826;2024-01-25T11:27:55;93960.47;;;8.66;48.13
61870;BME280;47810;42.264;23.826;2024-01-25T11:34:20;93959.09;;;9.50;48.14
61870;BME280;47810;42.264;23.826;2024-01-25T11:40:41;93970.25;;;8.48;50.68
61870;BME280;47810;42.264;23.826;2024-01-25T11:47:26;93969.47;;;7.81;49.41
61870;BME280;47810;42.264;23.826;2024-01-25T11:52:55;93977.06;;;7.69;48.72
61870;BME280;47810;42.264;23.826;2024-01-25T11:55:37;93979.56;;;7.55;49.20
61870;BME280;47810;42.264;23.826;2024-01-25T11:58:09;93985.50;;;7.59;48.96
61870;BME280;47810;42.264;23.826;2024-01-25T12:00:56;93986.81;;;7.50;50.03
61870;BME280;47810;42.264;23.826;2024-01-25T12:03:35;93971.06;;;7.50;48.92
61870;BME280;47810;42.264;23.826;2024-01-25T12:06:04;93968.00;;;7.42;48.72
61870;BME280;47810;42.264;23.826;2024-01-25T12:12:09;93956.06;;;7.35;49.88
61870;BME280;47810;42.264;23.826;2024-01-25T12:14:49;93972.25;;;7.27;49.85
61870;BME280;47810;42.264;23.826;2024-01-25T12:17:15;93978.78;;;7.18;50.13
61870;BME280;47810;42.264;23.826;2024-01-25T12:19:42;93984.97;;;7.17;50.88
61870;BME280;47810;42.264;23.826;2024-01-25T12:22:10;93985.75;;;7.19;50.95
61870;BME280;47810;42.264;23.826;2024-01-25T12:24:50;93977.88;;;7.19;50.40
61870;BME280;47810;42.264;23.826;2024-01-25T12:27:20;93976.16;;;7.18;49.81
61870;BME280;47810;42.264;23.826;2024-01-25T12:29:50;93988.69;;;7.13;50.43
61870;BME280;47810;42.264;23.826;2024-01-25T12:39:53;93975.53;;;6.96;52.01
61870;BME280;47810;42.264;23.826;2024-01-25T12:42:38;93965.53;;;7.04;51.19
61870;BME280;47810;42.264;23.826;2024-01-25T12:48:58;93959.63;;;6.99;50.84
61870;BME280;47810;42.264;23.826;2024-01-25T12:51:44;93932.53;;;6.98;49.96
61870;BME280;47810;42.264;23.826;2024-01-25T12:54:21;93928.69;;;7.06;51.44
61870;BME280;47810;42.264;23.826;2024-01-25T12:56:59;93922.13;;;6.97;51.39
61870;BME280;47810;42.264;23.826;2024-01-25T12:59:39;93930.78;;;6.99;52.11
61870;BME280;47810;42.264;23.826;2024-01-25T13:05:39;93896.88;;;7.12;50.38
61870;BME280;47810;42.264;23.826;2024-01-25T13:19:11;93824.56;;;7.22;49.56
61870;BME280;47810;42.264;23.826;2024-01-25T13:21:59;93828.22;;;7.19;49.02
61870;BME280;47810;42.264;23.826;2024-01-25T13:24:38;93835.03;;;7.06;48.74
61870;BME280;47810;42.264;23.826;2024-01-25T13:27:23;93826.97;;;7.09;48.42
61870;BME280;47810;42.264;23.826;2024-01-25T13:30:11;93810.50;;;7.07;48.82
61870;BME280;47810;42.264;23.826;2024-01-25T13:32:40;93824.34;;;7.09;47.86
61870;BME280;47810;42.264;23.826;2024-01-25T13:35:08;93805.41;;;7.04;47.78
61870;BME280;47810;42.264;23.826;2024-01-25T13:37:38;93806.91;;;7.08;46.41
61870;BME280;47810;42.264;23.826;2024-01-25T13:40:12;93817.25;;;7.11;46.00
61870;BME280;47810;42.264;23.826;2024-01-25T13:50:21;93818.69;;;7.50;46.14
61870;BME280;47810;42.264;23.826;2024-01-25T13:52:57;93812.00;;;7.60;45.52
61870;BME280;47810;42.264;23.826;2024-01-25T13:55:25;93820.03;;;7.57;44.51
61870;BME280;47810;42.264;23.826;2024-01-25T14:00:58;93819.88;;;7.60;46.24
61870;BME280;47810;42.264;23.826;2024-01-25T14:10:06;93803.91;;;7.16;46.81
61870;BME280;47810;42.264;23.826;2024-01-25T14:12:54;93816.91;;;7.02;46.22
61870;BME280;47810;42.264;23.826;2024-01-25T14:15:37;93811.28;;;6.92;47.46
61870;BME280;47810;42.264;23.826;2024-01-25T14:18:09;93820.25;;;6.88;47.63
61870;BME280;47810;42.264;23.826;2024-01-25T14:24:54;93832.47;;;6.71;48.02
61870;BME280;47810;42.264;23.826;2024-01-25T14:33:42;93842.78;;;6.57;49.55
61870;BME280;47810;42.264;23.826;2024-01-25T14:36:08;93832.59;;;6.51;50.79
61870;BME280;47810;42.264;23.826;2024-01-25T14:38:37;93846.50;;;6.53;51.55
61870;BME280;47810;42.264;23.826;2024-01-25T14:41:03;93842.78;;;6.57;50.49
61870;BME280;47810;42.264;23.826;2024-01-25T14:43:52;93852.97;;;6.46;51.60
61870;BME280;47810;42.264;23.826;2024-01-25T14:46:25;93833.22;;;6.39;51.98
61870;BME280;47810;42.264;23.826;2024-01-25T14:48:52;93840.16;;;6.40;51.83
61870;BME280;47810;42.264;23.826;2024-01-25T14:51:19;93850.97;;;6.34;52.18
61870;BME280;47810;42.264;23.826;2024-01-25T14:56:57;93840.47;;;6.34;52.65
61870;BME280;47810;42.264;23.826;2024-01-25T14:59:25;93847.69;;;6.28;53.10
61870;BME280;47810;42.264;23.826;2024-01-25T15:01:59;93848.25;;;6.35;52.68
61870;BME280;47810;42.264;23.826;2024-01-25T15:04:35;93851.81;;;6.34;52.64
61870;BME280;47810;42.264;23.826;2024-01-25T15:07:12;93844.03;;;6.33;53.30
61870;BME280;47810;42.264;23.826;2024-01-25T15:10:07;93844.03;;;6.33;51.94
61870;BME280;47810;42.264;23.826;2024-01-25T15:12:34;93856.66;;;6.24;53.17
61870;BME280;47810;42.264;23.826;2024-01-25T15:18:12;93848.28;;;6.16;52.26
61870;BME280;47810;42.264;23.826;2024-01-25T15:20:42;93854.31;;;6.18;52.59
61870;BME280;47810;42.264;23.826;2024-01-25T15:23:37;93851.69;;;6.18;51.86
61870;BME280;47810;42.264;23.826;2024-01-25T15:29:49;93848.47;;;6.13;51.74
61870;BME280;47810;42.264;23.826;2024-01-25T15:32:29;93872.63;;;6.01;52.95
61870;BME280;47810;42.264;23.826;2024-01-25T15:35:05;93882.88;;;6.05;53.06
61870;BME280;47810;42.264;23.826;2024-01-25T15:41:00;93880.34;;;6.04;51.97
61870;BME280;47810;42.264;23.826;2024-01-25T15:43:36;93906.28;;;6.10;51.72
61870;BME280;47810;42.264;23.826;2024-01-25T15:46:11;93903.16;;;6.02;51.57
61870;BME280;47810;42.264;23.826;2024-01-25T15:48:47;93903.81;;;6.07;51.95
61870;BME280;47810;42.264;23.826;2024-01-25T15:51:45;93900.69;;;5.99;52.07
61870;BME280;47810;42.264;23.826;2024-01-25T15:54:21;93914.72;;;5.98;51.71
61870;BME280;47810;42.264;23.826;2024-01-25T15:56:51;93907.75;;;5.97;52.03
61870;BME280;47810;42.264;23.826;2024-01-25T15:59:31;93918.75;;;6.05;51.22
61870;BME280;47810;42.264;23.826;2024-01-25T16:02:05;93916.53;;;5.96;51.89
61870;BME280;47810;42.264;23.826;2024-01-25T16:04:31;93917.03;;;5.85;53.08
61870;BME280;47810;42.264;23.826;2024-01-25T16:07:19;93930.88;;;5.87;53.32
61870;BME280;47810;42.264;23.826;2024-01-25T16:09:55;93937.00;;;5.88;52.72
61870;BME280;47810;42.264;23.826;2024-01-25T16:12:32;93931.28;;;5.98;52.94
61870;BME280;47810;42.264;23.826;2024-01-25T16:18:06;93950.31;;;6.02;52.76
61870;BME280;47810;42.264;23.826;2024-01-25T16:20:43;93947.56;;;6.05;53.10
61870;BME280;47810;42.264;23.826;2024-01-25T16:23:32;93938.88;;;6.04;53.65
61870;BME280;47810;42.264;23.826;2024-01-25T16:26:20;93940.41;;;6.09;53.98
61870;BME280;47810;42.264;23.826;2024-01-25T16:28:59;93948.91;;;5.95;54.80
61870;BME280;47810;42.264;23.826;2024-01-25T16:31:26;93945.09;;;6.02;55.05
61870;BME280;47810;42.264;23.826;2024-01-25T16:34:04;93935.06;;;5.91;56.03
61870;BME280;47810;42.264;23.826;2024-01-25T16:36:36;93954.16;;;5.95;55.37
61870;BME280;47810;42.264;23.826;2024-01-25T16:39:02;93942.22;;;5.88;56.12
61870;BME280;47810;42.264;23.826;2024-01-25T16:41:32;93947.16;;;5.95;56.24
61870;BME280;47810;42.264;23.826;2024-01-25T16:44:31;93956.09;;;5.90;57.74
61870;BME280;47810;42.264;23.826;2024-01-25T16:50:51;93956.50;;;5.80;58.31
61870;BME280;47810;42.264;23.826;2024-01-25T17:03:29;93947.19;;;5.94;57.05
61870;BME280;47810;42.264;23.826;2024-01-25T17:09:02;93951.00;;;5.87;57.59
61870;BME280;47810;42.264;23.826;2024-01-25T17:11:28;93976.56;;;5.81;58.07
61870;BME280;47810;42.264;23.826;2024-01-25T17:14:21;93967.00;;;5.80;57.88
61870;BME280;47810;42.264;23.826;2024-01-25T17:16:53;93961.13;;;5.75;58.14
61870;BME280;47810;42.264;23.826;2024-01-25T17:19:20;93956.38;;;5.83;57.10
61870;BME280;47810;42.264;23.826;2024-01-25T17:21:51;93959.06;;;5.82;57.35
61870;BME280;47810;42.264;23.826;2024-01-25T17:24:17;93949.44;;;5.82;57.72
61870;BME280;47810;42.264;23.826;2024-01-25T17:27:00;93955.94;;;5.74;58.55
61870;BME280;47810;42.264;23.826;2024-01-25T17:29:40;93950.00;;;5.89;56.36
61870;BME280;47810;42.264;23.826;2024-01-25T17:32:10;93947.34;;;5.91;55.57
61870;BME280;47810;42.264;23.826;2024-01-25T17:34:40;93951.19;;;6.02;54.60
61870;BME280;47810;42.264;23.826;2024-01-25T17:37:07;93938.06;;;6.02;55.18
61870;BME280;47810;42.264;23.826;2024-01-25T17:39:38;93948.50;;;6.04;54.71
61870;BME280;47810;42.264;23.826;2024-01-25T17:42:06;93967.00;;;6.01;55.74
61870;BME280;47810;42.264;23.826;2024-01-25T17:44:33;93976.53;;;6.02;55.99
61870;BME280;47810;42.264;23.826;2024-01-25T17:47:16;93986.91;;;5.84;59.98
61870;BME280;47810;42.264;23.826;2024-01-25T17:49:56;93979.28;;;5.59;62.06
61870;BME280;47810;42.264;23.826;2024-01-25T17:52:22;94003.75;;;5.40;63.28
61870;BME280;47810;42.264;23.826;2024-01-25T17:58:05;93996.44;;;5.26;64.50
61870;BME280;47810;42.264;23.826;2024-01-25T18:00:35;93978.53;;;5.17;65.33
61870;BME280;47810;42.264;23.826;2024-01-25T18:06:07;93988.28;;;5.13;65.75
61870;BME280;47810;42.264;23.826;2024-01-25T18:08:45;94009.59;;;5.04;65.26
61870;BME280;47810;42.264;23.826;2024-01-25T18:14:30;94009.06;;;4.96;66.21
61870;BME280;47810;42.264;23.826;2024-01-25T18:17:17;94029.41;;;4.67;70.77
61870;BME280;47810;42.264;23.826;2024-01-25T18:19:51;94024.00;;;4.50;72.03
61870;BME280;47810;42.264;23.826;2024-01-25T18:22:28;94033.53;;;4.51;71.52
61870;BME280;47810;42.264;23.826;2024-01-25T18:24:53;93997.31;;;4.41;73.19
61870;BME280;47810;42.264;23.826;2024-01-25T18:27:28;94008.97;;;4.33;75.74
61870;BME280;47810;42.264;23.826;2024-01-25T18:33:27;94004.75;;;4.07;79.08
61870;BME280;47810;42.264;23.826;2024-01-25T18:36:13;94013.56;;;4.26;75.09
61870;BME280;47810;42.264;23.826;2024-01-25T18:38:49;94020.25;;;4.33;74.38
61870;BME280;47810;42.264;23.826;2024-01-25T18:49:19;94008.63;;;4.64;65.36
61870;BME280;47810;42.264;23.826;2024-01-25T18:55:02;94001.94;;;4.99;60.46
61870;BME280;47810;42.264;23.826;2024-01-25T18:57:39;94003.34;;;5.08;60.76
61870;BME280;47810;42.264;23.826;2024-01-25T19:00:12;94006.97;;;5.04;58.75
61870;BME280;47810;42.264;23.826;2024-01-25T19:05:37;93986.13;;;5.23;57.40
61870;BME280;47810;42.264;23.826;2024-01-25T19:08:07;93998.75;;;5.33;56.24
61870;BME280;47810;42.264;23.826;2024-01-25T19:14:28;94036.97;;;5.37;55.24
61870;BME280;47810;42.264;23.826;2024-01-25T19:17:01;94019.03;;;5.49;55.26
61870;BME280;47810;42.264;23.826;2024-01-25T19:22:51;94006.47;;;5.57;54.50
61870;BME280;47810;42.264;23.826;2024-01-25T19:25:35;94012.75;;;5.53;55.12
61870;BME280;47810;42.264;23.826;2024-01-25T19:28:01;94004.91;;;5.53;55.38
61870;BME280;47810;42.264;23.826;2024-01-25T19:30:27;94012.94;;;5.48;55.18
61870;BME280;47810;42.264;23.826;2024-01-25T19:32:54;94013.06;;;5.45;56.62
61870;BME280;47810;42.264;23.826;2024-01-25T19:35:24;94032.19;;;5.47;56.09
61870;BME280;47810;42.264;23.826;2024-01-25T19:38:02;94016.75;;;5.41;55.91
61870;BME280;47810;42.264;23.826;2024-01-25T19:40:29;94003.59;;;5.43;56.72
61870;BME280;47810;42.264;23.826;2024-01-25T19:46:31;93998.50;;;5.40;56.12
61870;BME280;47810;42.264;23.826;2024-01-25T19:49:07;93995.13;;;5.36;55.97
61870;BME280;47810;42.264;23.826;2024-01-25T19:51:42;94002.72;;;5.42;55.06
61870;BME280;47810;42.264;23.826;2024-01-25T19:54:18;93999.94;;;5.47;54.13
61870;BME280;47810;42.264;23.826;2024-01-25T20:09:35;93999.03;;;5.27;57.03
61870;BME280;47810;42.264;23.826;2024-01-25T20:12:07;93988.56;;;5.27;57.17
61870;BME280;47810;42.264;23.826;2024-01-25T20:14:53;94004.38;;;5.24;57.36
61870;BME280;47810;42.264;23.826;2024-01-25T20:17:36;93994.09;;;5.20;58.03
61870;BME280;47810;42.264;23.826;2024-01-25T20:20:15;94000.97;;;5.22;57.82